createdAt,value
2019-02-05T00:03:04.844Z,14.30
2019-02-05T00:08:33.302Z,17.07
2019-02-05T00:13:56.130Z,16.85
2019-02-05T00:19:31.599Z,16.65
2019-02-05T00:25:34.292Z,16.57
2019-02-05T00:31:05.225Z,19.55
2019-02-05T00:36:35.748Z,20.60
2019-02-05T00:42:08.814Z,16.67
2019-02-05T00:47:14.626Z,16.82
2019-02-05T00:52:20.943Z,18.67
2019-02-05T00:57:32.934Z,18.65
2019-02-05T01:02:40.989Z,18.90
2019-02-05T01:07:50.875Z,19.45
2019-02-05T01:12:57.639Z,20.92
2019-02-05T01:18:07.292Z,17.55
2019-02-05T01:23:15.582Z,22.58
2019-02-05T01:28:48.996Z,17.30
2019-02-05T01:33:56.138Z,22.73
2019-02-05T01:45:51.357Z,21.25
2019-02-05T01:51:07.113Z,23.25
2019-02-05T01:56:41.101Z,23.62
2019-02-05T02:02:09.744Z,18.60
2019-02-05T02:08:01.496Z,23.60
2019-02-05T02:13:53.410Z,23.55
2019-02-05T02:20:09.193Z,22.52
2019-02-05T02:25:42.101Z,22.30
2019-02-05T02:37:16.709Z,24.18
2019-02-05T02:43:01.054Z,22.30
2019-02-05T02:48:10.710Z,25.30
2019-02-05T02:53:33.500Z,20.90
2019-02-05T02:58:45.101Z,25.70
2019-02-05T03:03:53.788Z,25.97
2019-02-05T03:09:15.108Z,25.45
2019-02-05T03:14:46.222Z,22.60
2019-02-05T03:32:25.512Z,26.93
2019-02-05T03:38:41.896Z,21.87
2019-02-05T04:03:36.210Z,26.75
2019-02-05T04:09:22.927Z,32.10
2019-02-05T04:14:56.870Z,25.12
2019-02-05T04:20:49.669Z,26.87
2019-02-05T04:26:33.669Z,27.55
2019-02-05T04:32:23.232Z,33.33
2019-02-05T04:44:31.452Z,26.33
2019-02-05T04:50:04.391Z,29.65
2019-02-05T04:56:15.160Z,32.38
2019-02-05T05:01:46.362Z,28.25
2019-02-05T05:07:33.595Z,27.67
2019-02-05T05:12:35.959Z,27.42
2019-02-05T05:17:37.957Z,25.88
2019-02-05T05:22:40.352Z,27.60
2019-02-05T05:27:42.767Z,32.10
2019-02-05T05:32:44.774Z,30.90
2019-02-05T05:37:49.067Z,28.40
2019-02-05T05:42:51.104Z,28.73
2019-02-05T05:47:53.117Z,31.55
2019-02-05T05:52:55.270Z,33.83
2019-02-05T05:57:57.722Z,28.90
2019-02-05T06:02:59.764Z,28.92
2019-02-05T06:08:01.789Z,31.82
2019-02-05T06:13:06.579Z,36.50
2019-02-05T06:18:08.767Z,30.52
2019-02-05T06:23:11.797Z,32.35
2019-02-05T06:28:13.920Z,30.02
2019-02-05T06:33:16.980Z,35.55
2019-02-05T06:38:22.156Z,31.95
2019-02-05T06:43:24.459Z,31.37
2019-02-05T06:48:26.620Z,35.13
2019-02-05T06:53:28.852Z,37.23
2019-02-05T06:58:31.059Z,38.38
2019-02-05T07:03:33.534Z,33.90
2019-02-05T07:08:35.709Z,36.48
2019-02-05T07:13:42.013Z,38.13
2019-02-05T07:18:44.374Z,34.18
2019-02-05T07:23:47.708Z,35.23
2019-02-05T07:28:58.168Z,40.60
2019-02-05T07:33:53.806Z,43.45
2019-02-05T07:38:55.914Z,38.25
2019-02-05T07:43:58.695Z,36.73
2019-02-05T07:49:02.945Z,38.10
2019-02-05T07:54:05.157Z,37.55
2019-02-05T07:59:10.276Z,43.05
2019-02-05T08:04:12.954Z,38.53
2019-02-05T08:09:17.182Z,43.78
2019-02-05T08:14:21.667Z,38.00
2019-02-05T08:19:23.759Z,34.92
2019-02-05T08:24:25.834Z,44.20
2019-02-05T08:29:28.336Z,33.42
2019-02-05T08:34:30.505Z,37.35
2019-02-05T08:39:32.627Z,41.20
2019-02-05T08:44:35.922Z,42.98
2019-02-05T08:49:38.070Z,34.95
2019-02-05T08:54:40.250Z,34.98
2019-02-05T08:59:42.328Z,33.38
2019-02-05T09:04:47.451Z,34.43
2019-02-05T09:09:49.891Z,37.30
2019-02-05T09:14:52.135Z,36.53
2019-02-05T09:19:54.534Z,36.40
2019-02-05T09:24:57.121Z,40.88
2019-02-05T09:30:00.245Z,36.38
2019-02-05T09:35:03.207Z,41.10
2019-02-05T09:40:10.879Z,32.45
2019-02-05T09:45:13.567Z,33.75
2019-02-05T09:50:16.121Z,37.33
2019-02-05T09:55:20.266Z,39.55
2019-02-05T10:00:25.612Z,33.28
2019-02-05T10:05:29.744Z,36.03
2019-02-05T10:10:31.936Z,37.10
2019-02-05T10:15:35.136Z,37.75
2019-02-05T10:20:37.564Z,39.83
2019-02-05T10:25:39.803Z,35.08
2019-02-05T10:30:44.324Z,37.60
2019-02-05T10:35:46.455Z,42.23
2019-02-05T10:40:48.610Z,39.38
2019-02-05T10:45:50.823Z,37.10
2019-02-05T10:50:53.106Z,32.98
2019-02-05T10:55:55.375Z,38.65
2019-02-05T11:00:57.568Z,37.53
2019-02-05T11:05:59.851Z,32.60
2019-02-05T11:11:02.014Z,38.20
2019-02-05T11:16:07.897Z,33.40
2019-02-05T11:21:10.140Z,31.10
2019-02-05T11:26:12.321Z,33.08
2019-02-05T11:31:14.420Z,32.13
2019-02-05T11:36:16.707Z,30.48
2019-02-05T11:41:18.880Z,33.40
2019-02-05T11:46:24.328Z,32.38
2019-02-05T11:51:26.423Z,26.37
2019-02-05T11:56:28.502Z,29.52
2019-02-05T12:01:39.011Z,29.50
2019-02-05T12:06:42.323Z,29.48
2019-02-05T12:11:47.053Z,26.97
2019-02-05T12:16:49.209Z,28.45
2019-02-05T12:21:51.360Z,28.40
2019-02-05T12:26:56.376Z,28.70
2019-02-05T12:31:58.490Z,33.53
2019-02-05T12:37:00.601Z,28.38
2019-02-05T12:42:02.942Z,30.30
2019-02-05T12:47:05.046Z,28.42
2019-02-05T12:52:09.365Z,30.95
2019-02-05T12:57:12.811Z,28.60
2019-02-05T13:02:14.998Z,29.48
2019-02-05T13:07:17.119Z,29.52
2019-02-05T13:12:19.828Z,26.85
2019-02-05T13:17:23.672Z,26.80
2019-02-05T13:22:25.935Z,25.92
2019-02-05T13:27:28.049Z,24.23
2019-02-05T13:32:30.465Z,26.17
2019-02-05T13:37:32.581Z,26.20
2019-02-05T13:42:34.847Z,25.75
2019-02-05T13:47:36.901Z,24.52
2019-02-05T13:52:39.025Z,24.52
2019-02-05T13:57:43.903Z,26.82
2019-02-05T14:02:47.308Z,21.68
2019-02-05T14:07:49.354Z,25.23
2019-02-05T14:12:51.476Z,21.15
2019-02-05T14:17:53.631Z,25.27
2019-02-05T14:22:57.444Z,20.25
2019-02-05T14:27:59.550Z,25.60
2019-02-05T14:33:01.601Z,32.90
2019-02-05T14:38:08.165Z,26.27
2019-02-05T14:43:10.297Z,24.85
2019-02-05T14:48:12.682Z,29.18
2019-02-05T14:53:15.713Z,26.23
2019-02-05T14:58:18.075Z,25.70
2019-02-05T15:03:20.156Z,23.98
2019-02-05T15:08:22.244Z,25.70
2019-02-05T15:13:24.696Z,17.80
2019-02-05T15:18:27.033Z,22.17
2019-02-05T15:23:29.097Z,20.90
2019-02-05T15:28:31.267Z,26.27
2019-02-05T15:34:02.514Z,23.65
2019-02-05T15:39:11.576Z,26.87
2019-02-05T15:44:13.715Z,22.85
2019-02-05T15:49:15.835Z,20.97
2019-02-05T15:54:17.968Z,22.93
2019-02-05T15:59:22.353Z,23.73
2019-02-05T16:04:26.438Z,22.87
2019-02-05T16:09:31.185Z,25.17
2019-02-05T16:14:33.365Z,24.82
2019-02-05T16:19:35.448Z,25.72
2019-02-05T16:24:37.531Z,25.05
2019-02-05T16:29:40.407Z,25.90
2019-02-05T16:34:42.593Z,25.43
2019-02-05T16:39:44.906Z,26.15
2019-02-05T16:44:47.067Z,25.52
2019-02-05T16:49:51.845Z,25.88
2019-02-05T16:54:56.603Z,23.12
2019-02-05T17:00:00.226Z,25.40
2019-02-05T17:05:03.129Z,24.47
2019-02-05T17:10:08.365Z,25.97
2019-02-05T17:15:11.716Z,27.82
2019-02-05T17:20:19.797Z,29.32
2019-02-05T17:25:23.011Z,31.30
2019-02-05T17:30:31.636Z,26.80
2019-02-05T17:35:35.453Z,22.22
2019-02-05T17:40:38.043Z,25.95
2019-02-05T17:45:40.721Z,24.77
2019-02-05T17:50:42.891Z,29.07
2019-02-05T17:55:48.762Z,30.32
2019-02-05T18:00:56.394Z,29.98
2019-02-05T18:06:27.472Z,30.32
2019-02-05T18:12:11.189Z,32.60
2019-02-05T18:17:13.495Z,25.08
2019-02-05T18:22:26.747Z,25.77
2019-02-05T18:28:10.766Z,28.45
2019-02-05T18:33:41.743Z,30.82
2019-02-05T18:44:58.621Z,31.23
2019-02-05T18:50:04.398Z,27.60
2019-02-05T18:55:11.757Z,35.43
2019-02-05T19:00:20.823Z,31.60
2019-02-05T19:05:26.194Z,34.10
2019-02-05T19:10:29.033Z,33.10
2019-02-05T19:15:32.906Z,35.25
2019-02-05T19:20:35.277Z,32.33
2019-02-05T19:25:46.843Z,33.05
2019-02-05T19:30:50.037Z,33.73
2019-02-05T19:35:52.182Z,32.58
2019-02-05T19:40:57.512Z,38.25
2019-02-05T19:46:17.030Z,41.20
2019-02-05T19:51:19.292Z,40.40
2019-02-05T19:56:37.676Z,37.58
2019-02-05T20:01:32.360Z,36.10
2019-02-05T20:06:35.182Z,35.83
2019-02-05T20:11:38.772Z,35.85
2019-02-05T20:16:41.731Z,41.80
2019-02-05T20:21:44.132Z,39.38
2019-02-05T20:26:47.708Z,36.85
2019-02-05T20:31:50.140Z,36.05
2019-02-05T20:36:52.170Z,44.58
2019-02-05T20:41:54.270Z,34.10
2019-02-05T20:47:00.207Z,40.28
2019-02-05T20:52:13.789Z,35.78
2019-02-05T20:57:41.007Z,37.33
2019-02-05T21:03:01.657Z,34.23
2019-02-05T21:08:12.063Z,37.20
2019-02-05T21:13:14.148Z,38.10
2019-02-05T21:18:25.945Z,37.00
2019-02-05T21:23:51.081Z,32.13
2019-02-05T21:29:09.562Z,33.70
2019-02-05T21:34:25.895Z,35.05
2019-02-05T21:39:41.433Z,41.55
2019-02-05T21:45:21.010Z,36.77
2019-02-05T21:50:36.388Z,36.00
2019-02-05T21:55:48.875Z,35.78
2019-02-05T22:01:06.382Z,39.80
2019-02-05T22:06:27.735Z,37.23
2019-02-05T22:11:51.280Z,37.40
2019-02-05T22:17:03.430Z,38.50
2019-02-05T22:22:19.839Z,33.20
2019-02-05T22:27:37.579Z,37.48
2019-02-05T22:32:53.430Z,34.40
2019-02-05T22:38:12.443Z,36.90
2019-02-05T22:43:32.633Z,36.75
2019-02-05T22:49:12.009Z,31.87
2019-02-05T22:54:33.545Z,36.50
2019-02-05T22:59:44.832Z,37.63
2019-02-05T23:05:35.134Z,38.63
2019-02-05T23:11:09.310Z,36.05
2019-02-05T23:16:25.264Z,38.50
2019-02-05T23:21:41.416Z,37.48
2019-02-05T23:27:12.967Z,40.88
2019-02-05T23:32:48.026Z,42.05
2019-02-05T23:38:14.947Z,43.58
2019-02-05T23:43:35.706Z,43.15
2019-02-05T23:48:54.114Z,42.40
2019-02-05T23:54:06.118Z,40.65
2019-02-05T23:59:33.648Z,37.10
